createdAt,value
2018-05-31T00:00:27.827Z,100207.13
2018-05-31T00:02:54.151Z,100209.08
2018-05-31T00:05:20.457Z,100204.72
2018-05-31T00:07:46.724Z,100211.67
2018-05-31T00:10:13.020Z,100205.73
2018-05-31T00:12:39.337Z,100209.72
2018-05-31T00:15:05.649Z,100216.75
2018-05-31T00:17:31.953Z,100206.22
2018-05-31T00:19:58.221Z,100213.32
2018-05-31T00:22:24.502Z,100213.02
2018-05-31T00:24:50.787Z,100211.44
2018-05-31T00:27:17.035Z,100203.12
2018-05-31T00:29:44.038Z,100210.98
2018-05-31T00:32:10.301Z,100199.06
2018-05-31T00:34:36.567Z,100207.78
2018-05-31T00:37:03.609Z,100206.38
2018-05-31T00:39:30.614Z,100209.91
2018-05-31T00:41:56.885Z,100204.34
2018-05-31T00:44:23.189Z,100202.31
2018-05-31T00:46:49.502Z,100199.06
2018-05-31T00:49:15.769Z,100193.84
2018-05-31T00:51:42.038Z,100190.41
2018-05-31T00:54:08.274Z,100189.34
2018-05-31T00:56:34.570Z,100184.95
2018-05-31T00:59:00.869Z,100181.41
2018-05-31T01:01:27.161Z,100182.96
2018-05-31T01:03:53.465Z,100185.36
2018-05-31T01:06:19.730Z,100180.59
2018-05-31T01:08:46.014Z,100183.46
2018-05-31T01:11:12.302Z,100179.90
2018-05-31T01:13:38.742Z,100175.45
2018-05-31T01:16:05.045Z,100178.98
2018-05-31T01:18:31.327Z,100167.28
2018-05-31T01:20:57.819Z,100168.86
2018-05-31T01:23:24.088Z,100168.77
2018-05-31T01:25:50.380Z,100169.92
2018-05-31T01:28:16.669Z,100161.09
2018-05-31T01:30:42.945Z,100165.06
2018-05-31T01:33:09.245Z,100159.85
2018-05-31T01:35:36.294Z,100159.19
2018-05-31T01:41:09.969Z,100162.26
2018-05-31T01:43:36.241Z,100162.00
2018-05-31T01:46:02.553Z,100158.86
2018-05-31T01:48:28.816Z,100161.79
2018-05-31T01:50:55.113Z,100147.37
2018-05-31T01:53:21.425Z,100145.37
2018-05-31T01:55:47.726Z,100152.50
2018-05-31T01:58:14.004Z,100153.96
2018-05-31T02:00:40.258Z,100160.39
2018-05-31T02:03:06.557Z,100161.41
2018-05-31T02:05:32.816Z,100168.08
2018-05-31T02:07:59.103Z,100184.11
2018-05-31T02:10:28.066Z,100206.89
2018-05-31T02:12:55.618Z,100222.66
2018-05-31T02:15:21.937Z,100218.59
2018-05-31T02:17:48.244Z,100194.77
2018-05-31T02:20:14.510Z,100207.39
2018-05-31T02:22:40.835Z,100209.66
2018-05-31T02:25:07.145Z,100197.28
2018-05-31T02:27:33.470Z,100173.77
2018-05-31T02:29:59.765Z,100175.02
2018-05-31T02:32:26.080Z,100181.12
2018-05-31T02:34:52.401Z,100179.08
2018-05-31T02:37:19.421Z,100174.14
2018-05-31T02:39:45.759Z,100174.09
2018-05-31T02:42:12.081Z,100177.27
2018-05-31T02:44:38.426Z,100173.10
2018-05-31T02:47:04.723Z,100181.09
2018-05-31T02:49:31.026Z,100179.06
2018-05-31T02:51:57.330Z,100169.02
2018-05-31T02:54:23.617Z,100160.28
2018-05-31T02:56:50.681Z,100166.29
2018-05-31T02:59:16.965Z,100163.34
2018-05-31T03:01:43.277Z,100166.94
2018-05-31T03:04:09.590Z,100165.55
2018-05-31T03:06:35.906Z,100159.11
2018-05-31T03:09:02.962Z,100164.47
2018-05-31T03:11:29.248Z,100162.70
2018-05-31T03:13:55.537Z,100165.48
2018-05-31T03:16:21.877Z,100167.42
2018-05-31T03:18:48.902Z,100166.70
2018-05-31T03:21:15.211Z,100172.23
2018-05-31T03:23:41.508Z,100176.17
2018-05-31T03:26:08.584Z,100176.25
2018-05-31T03:28:34.927Z,100190.31
2018-05-31T03:31:01.270Z,100187.88
2018-05-31T03:33:27.613Z,100190.30
2018-05-31T03:35:53.961Z,100195.47
2018-05-31T03:38:20.261Z,100199.55
2018-05-31T03:40:46.529Z,100188.78
2018-05-31T03:43:13.056Z,100183.74
2018-05-31T03:45:39.411Z,100187.88
2018-05-31T03:48:05.750Z,100188.02
2018-05-31T03:50:32.057Z,100199.22
2018-05-31T03:52:58.314Z,100202.00
2018-05-31T03:55:24.590Z,100208.53
2018-05-31T03:57:51.630Z,100217.09
2018-05-31T04:00:17.934Z,100207.47
2018-05-31T04:02:44.269Z,100207.83
2018-05-31T04:05:10.602Z,100213.95
2018-05-31T04:07:36.894Z,100218.42
2018-05-31T04:10:03.959Z,100220.45
2018-05-31T04:12:30.247Z,100216.16
2018-05-31T04:14:56.523Z,100212.78
2018-05-31T04:17:23.625Z,100214.73
2018-05-31T04:19:49.905Z,100211.30
2018-05-31T04:22:17.025Z,100209.84
2018-05-31T04:24:43.346Z,100207.94
2018-05-31T04:27:09.631Z,100227.37
2018-05-31T04:29:36.665Z,100214.08
2018-05-31T04:32:03.707Z,100213.06
2018-05-31T04:34:29.998Z,100213.25
2018-05-31T04:36:56.280Z,100217.06
2018-05-31T04:39:22.583Z,100221.83
2018-05-31T04:41:48.844Z,100222.94
2018-05-31T04:44:15.141Z,100222.37
2018-05-31T04:46:41.430Z,100219.64
2018-05-31T04:49:07.741Z,100223.81
2018-05-31T04:51:34.001Z,100220.65
2018-05-31T04:54:00.316Z,100222.47
2018-05-31T04:56:26.651Z,100212.02
2018-05-31T04:58:52.981Z,100213.16
2018-05-31T05:01:19.322Z,100202.12
2018-05-31T05:03:45.597Z,100207.45
2018-05-31T05:06:12.652Z,100205.06
2018-05-31T05:08:38.959Z,100203.98
2018-05-31T05:11:05.254Z,100194.88
2018-05-31T05:13:31.565Z,100193.92
2018-05-31T05:15:58.570Z,100193.45
2018-05-31T05:18:24.895Z,100183.34
2018-05-31T05:20:51.215Z,100190.50
2018-05-31T05:23:17.471Z,100188.42
2018-05-31T05:25:43.774Z,100186.42
2018-05-31T05:28:10.776Z,100185.11
2018-05-31T05:30:37.082Z,100194.45
2018-05-31T05:33:03.397Z,100190.80
2018-05-31T05:35:30.476Z,100199.23
2018-05-31T05:37:56.734Z,100207.25
2018-05-31T05:40:23.059Z,100213.54
2018-05-31T05:42:49.298Z,100214.78
2018-05-31T05:45:15.566Z,100216.74
2018-05-31T05:47:41.861Z,100213.66
2018-05-31T05:50:08.155Z,100216.66
2018-05-31T05:52:34.438Z,100213.20
2018-05-31T05:55:00.726Z,100215.14
2018-05-31T05:57:26.983Z,100210.31
2018-05-31T05:59:53.250Z,100204.14
2018-05-31T06:02:19.526Z,100207.13
2018-05-31T06:04:45.826Z,100209.58
2018-05-31T06:07:12.158Z,100216.48
2018-05-31T06:09:40.136Z,100218.75
2018-05-31T06:12:06.445Z,100221.60
2018-05-31T06:14:33.438Z,100232.20
2018-05-31T06:16:59.737Z,100242.68
2018-05-31T06:19:26.109Z,100241.19
2018-05-31T06:21:52.352Z,100246.43
2018-05-31T06:24:18.614Z,100254.24
2018-05-31T06:26:45.652Z,100253.65
2018-05-31T06:29:12.680Z,100253.72
2018-05-31T06:31:39.030Z,100265.83
2018-05-31T06:34:05.362Z,100265.45
2018-05-31T06:36:31.695Z,100265.23
2018-05-31T06:38:57.953Z,100259.72
2018-05-31T06:41:24.298Z,100267.94
2018-05-31T06:43:51.303Z,100265.97
2018-05-31T06:46:17.596Z,100276.92
2018-05-31T06:48:43.896Z,100271.86
2018-05-31T06:51:10.114Z,100267.13
2018-05-31T06:53:36.421Z,100269.41
2018-05-31T06:56:03.435Z,100269.16
2018-05-31T06:58:29.734Z,100270.54
2018-05-31T07:00:56.066Z,100274.17
2018-05-31T07:03:22.317Z,100288.42
2018-05-31T07:05:48.650Z,100277.21
2018-05-31T07:08:15.014Z,100282.51
2018-05-31T07:10:41.318Z,100280.58
2018-05-31T07:13:07.651Z,100280.81
2018-05-31T07:15:33.907Z,100282.33
2018-05-31T07:18:00.161Z,100279.89
2018-05-31T07:20:27.991Z,100288.48
2018-05-31T07:22:54.277Z,100286.38
2018-05-31T07:25:21.375Z,100285.85
2018-05-31T07:27:47.666Z,100283.22
2018-05-31T07:30:13.977Z,100286.34
2018-05-31T07:32:40.254Z,100285.30
2018-05-31T07:35:07.277Z,100281.30
2018-05-31T07:37:33.590Z,100288.11
2018-05-31T07:39:59.912Z,100276.08
2018-05-31T07:42:26.177Z,100270.56
2018-05-31T07:44:52.477Z,100276.34
2018-05-31T07:47:18.773Z,100279.39
2018-05-31T07:49:45.055Z,100275.36
2018-05-31T07:52:11.350Z,100275.67
2018-05-31T07:54:37.622Z,100271.44
2018-05-31T07:57:03.910Z,100274.78
2018-05-31T07:59:30.151Z,100271.49
2018-05-31T08:01:56.482Z,100280.33
2018-05-31T08:04:24.227Z,100283.25
2018-05-31T08:06:50.457Z,100278.18
2018-05-31T08:09:16.719Z,100285.19
2018-05-31T08:11:43.085Z,100283.97
2018-05-31T08:14:10.126Z,100284.66
2018-05-31T08:16:37.182Z,100277.05
2018-05-31T08:19:04.178Z,100274.91
2018-05-31T08:21:30.504Z,100277.64
2018-05-31T08:23:56.849Z,100277.80
2018-05-31T08:26:23.121Z,100281.37
2018-05-31T08:28:49.429Z,100290.92
2018-05-31T08:31:15.741Z,100276.83
2018-05-31T08:33:42.066Z,100278.66
2018-05-31T08:36:09.073Z,100271.95
2018-05-31T08:38:35.395Z,100274.53
2018-05-31T08:41:01.661Z,100278.35
2018-05-31T08:43:27.929Z,100282.95
2018-05-31T08:45:54.218Z,100283.44
2018-05-31T08:48:20.705Z,100281.52
2018-05-31T08:50:46.974Z,100278.73
2018-05-31T08:53:13.233Z,100278.05
2018-05-31T08:55:40.083Z,100278.55
2018-05-31T08:58:06.380Z,100284.06
2018-05-31T09:00:32.649Z,100284.13
2018-05-31T09:02:59.616Z,100288.74
2018-05-31T09:05:27.081Z,100284.34
2018-05-31T09:07:53.364Z,100286.27
2018-05-31T09:10:22.813Z,100285.87
2018-05-31T09:12:52.678Z,100283.09
2018-05-31T09:15:19.441Z,100288.92
2018-05-31T09:17:45.749Z,100283.61
2018-05-31T09:20:12.783Z,100286.17
2018-05-31T09:22:39.703Z,100283.72
2018-05-31T09:25:06.200Z,100276.77
2018-05-31T09:27:33.187Z,100284.36
2018-05-31T09:30:02.216Z,100269.74
2018-05-31T09:32:28.538Z,100274.51
2018-05-31T09:34:54.798Z,100274.97
2018-05-31T09:37:21.085Z,100279.52
2018-05-31T09:39:47.401Z,100272.11
2018-05-31T09:42:13.639Z,100277.10
2018-05-31T09:44:40.980Z,100280.31
2018-05-31T09:47:08.041Z,100280.55
2018-05-31T09:49:34.338Z,100278.23
2018-05-31T09:52:00.669Z,100271.45
2018-05-31T09:54:26.953Z,100268.20
2018-05-31T09:56:53.229Z,100272.60
2018-05-31T09:59:19.441Z,100265.73
2018-05-31T10:01:45.665Z,100262.00
2018-05-31T10:04:11.937Z,100255.55
2018-05-31T10:06:38.253Z,100266.36
2018-05-31T10:09:04.603Z,100263.47
2018-05-31T10:11:30.894Z,100264.35
2018-05-31T10:13:57.942Z,100263.59
2018-05-31T10:16:24.946Z,100255.27
2018-05-31T10:18:51.210Z,100246.44
2018-05-31T10:21:17.857Z,100246.95
2018-05-31T10:23:44.124Z,100239.74
2018-05-31T10:26:10.356Z,100242.59
2018-05-31T10:28:37.409Z,100241.73
2018-05-31T10:31:03.679Z,100239.73
2018-05-31T10:33:29.905Z,100234.58
2018-05-31T10:35:56.746Z,100232.45
2018-05-31T10:38:23.938Z,100233.94
2018-05-31T10:40:50.217Z,100236.97
2018-05-31T10:43:17.237Z,100234.27
2018-05-31T10:45:43.521Z,100229.58
2018-05-31T10:48:09.794Z,100236.66
2018-05-31T10:50:36.104Z,100227.97
2018-05-31T10:53:02.381Z,100226.41
2018-05-31T10:55:28.673Z,100235.62
2018-05-31T10:57:54.892Z,100222.70
2018-05-31T11:00:21.184Z,100219.45
2018-05-31T11:02:47.449Z,100220.00
2018-05-31T11:05:14.517Z,100209.67
2018-05-31T11:07:40.805Z,100212.56
2018-05-31T11:10:07.093Z,100205.52
2018-05-31T11:12:33.486Z,100201.28
2018-05-31T11:14:59.778Z,100199.28
2018-05-31T11:17:26.056Z,100193.73
2018-05-31T11:19:52.317Z,100191.36
2018-05-31T11:22:19.320Z,100186.16
2018-05-31T11:24:45.591Z,100178.75
2018-05-31T11:27:11.881Z,100172.93
2018-05-31T11:29:38.203Z,100167.13
2018-05-31T11:32:08.382Z,100166.27
2018-05-31T11:34:34.897Z,100157.03
2018-05-31T11:37:01.217Z,100163.50
2018-05-31T11:39:27.464Z,100158.97
2018-05-31T11:41:53.854Z,100149.75
2018-05-31T11:44:20.109Z,100151.75
2018-05-31T11:46:49.299Z,100150.78
2018-05-31T11:49:15.637Z,100145.86
2018-05-31T11:51:42.720Z,100143.49
2018-05-31T11:54:09.004Z,100135.48
2018-05-31T11:56:35.305Z,100138.19
2018-05-31T11:59:01.588Z,100132.88
2018-05-31T12:01:28.609Z,100130.48
2018-05-31T12:03:54.905Z,100125.25
2018-05-31T12:06:21.181Z,100129.30
2018-05-31T12:08:47.476Z,100122.04
2018-05-31T12:11:13.753Z,100122.08
2018-05-31T12:13:40.048Z,100134.62
2018-05-31T12:16:06.369Z,100136.81
2018-05-31T12:18:36.040Z,100131.70
2018-05-31T12:21:02.430Z,100129.53
2018-05-31T12:23:28.702Z,100132.95
2018-05-31T12:25:55.027Z,100136.39
2018-05-31T12:28:21.345Z,100130.43
2018-05-31T12:30:47.614Z,100133.19
2018-05-31T12:33:13.939Z,100124.48
2018-05-31T12:35:40.253Z,100135.63
2018-05-31T12:38:06.570Z,100141.13
2018-05-31T12:40:32.813Z,100139.95
2018-05-31T12:42:59.078Z,100143.09
2018-05-31T12:45:25.363Z,100144.02
2018-05-31T12:47:52.420Z,100136.68
2018-05-31T12:50:19.454Z,100135.87
2018-05-31T12:52:45.737Z,100140.86
2018-05-31T12:55:12.010Z,100144.36
2018-05-31T12:57:38.308Z,100146.59
2018-05-31T13:00:04.553Z,100149.83
2018-05-31T13:02:30.829Z,100164.36
2018-05-31T13:04:57.114Z,100156.03
2018-05-31T13:07:23.405Z,100165.39
2018-05-31T13:09:49.689Z,100173.05
2018-05-31T13:12:15.977Z,100176.66
2018-05-31T13:14:42.263Z,100184.16
2018-05-31T13:17:08.549Z,100180.70
2018-05-31T13:19:35.577Z,100179.47
2018-05-31T13:22:01.889Z,100178.74
2018-05-31T13:24:28.138Z,100182.47
2018-05-31T13:26:54.441Z,100179.42
2018-05-31T13:29:20.716Z,100171.09
2018-05-31T13:31:46.982Z,100163.58
2018-05-31T13:34:14.029Z,100158.70
2018-05-31T13:36:40.336Z,100170.56
2018-05-31T13:39:06.579Z,100167.30
2018-05-31T13:41:32.873Z,100164.09
2018-05-31T13:43:59.136Z,100150.21
2018-05-31T13:46:25.417Z,100151.08
2018-05-31T13:48:51.656Z,100150.59
2018-05-31T13:51:17.944Z,100154.21
2018-05-31T13:53:44.270Z,100162.19
2018-05-31T13:56:10.529Z,100170.09
2018-05-31T13:58:37.088Z,100178.30
2018-05-31T14:01:04.314Z,100171.85
2018-05-31T14:03:30.821Z,100173.95
2018-05-31T14:05:57.134Z,100166.63
2018-05-31T14:08:23.409Z,100168.48
2018-05-31T14:10:49.721Z,100180.75
2018-05-31T14:13:16.817Z,100187.09
2018-05-31T14:15:43.113Z,100186.47
2018-05-31T14:18:10.117Z,100189.39
2018-05-31T14:20:36.386Z,100180.55
2018-05-31T14:23:03.461Z,100195.36
2018-05-31T14:25:29.766Z,100207.81
2018-05-31T14:27:57.613Z,100210.75
2018-05-31T14:30:23.920Z,100206.75
2018-05-31T14:32:50.289Z,100226.16
2018-05-31T14:35:17.874Z,100220.66
2018-05-31T14:37:44.869Z,100204.64
2018-05-31T14:40:11.193Z,100194.81
2018-05-31T14:42:37.497Z,100199.09
2018-05-31T14:45:03.889Z,100198.98
2018-05-31T14:47:30.173Z,100203.23
2018-05-31T14:49:57.206Z,100211.86
2018-05-31T14:52:23.489Z,100195.25
2018-05-31T14:54:50.499Z,100194.56
2018-05-31T14:57:16.796Z,100187.05
2018-05-31T14:59:43.108Z,100173.20
2018-05-31T15:02:10.131Z,100172.27
2018-05-31T15:04:37.154Z,100160.69
2018-05-31T15:07:03.486Z,100160.34
2018-05-31T15:09:29.777Z,100163.17
2018-05-31T15:11:56.073Z,100164.57
2018-05-31T15:14:22.353Z,100163.58
2018-05-31T15:16:48.670Z,100163.23
2018-05-31T15:19:15.703Z,100177.39
2018-05-31T15:21:42.018Z,100172.19
2018-05-31T15:24:08.294Z,100166.39
2018-05-31T15:26:34.615Z,100161.80
2018-05-31T15:29:00.904Z,100164.59
2018-05-31T15:31:27.506Z,100159.52
2018-05-31T15:33:53.877Z,100151.52
2018-05-31T15:36:20.297Z,100153.13
2018-05-31T15:38:47.375Z,100143.28
2018-05-31T15:41:13.708Z,100149.64
2018-05-31T15:43:40.014Z,100141.66
2018-05-31T15:46:09.469Z,100135.59
2018-05-31T15:48:35.866Z,100133.05
2018-05-31T15:51:02.167Z,100121.64
2018-05-31T15:53:28.508Z,100125.82
2018-05-31T15:55:54.784Z,100126.67
2018-05-31T15:58:24.232Z,100127.67
2018-05-31T16:00:50.575Z,100121.73
2018-05-31T16:03:16.825Z,100121.69
2018-05-31T16:05:43.091Z,100122.84
2018-05-31T16:08:10.118Z,100129.05
2018-05-31T16:10:36.465Z,100134.36
2018-05-31T16:13:02.757Z,100138.48
2018-05-31T16:15:29.049Z,100133.20
2018-05-31T16:17:55.331Z,100140.16
2018-05-31T16:20:21.608Z,100134.30
2018-05-31T16:22:47.877Z,100147.02
2018-05-31T16:25:14.899Z,100147.42
2018-05-31T16:27:41.222Z,100143.80
2018-05-31T16:30:07.527Z,100151.04
2018-05-31T16:32:33.810Z,100143.33
2018-05-31T16:35:00.126Z,100153.41
2018-05-31T16:37:26.354Z,100142.58
2018-05-31T16:39:52.690Z,100146.98
2018-05-31T16:42:18.929Z,100150.84
2018-05-31T16:44:45.222Z,100144.28
2018-05-31T16:47:11.493Z,100142.05
2018-05-31T16:49:40.123Z,100149.86
2018-05-31T16:52:07.351Z,100152.75
2018-05-31T16:54:33.609Z,100155.52
2018-05-31T16:56:59.854Z,100148.09
2018-05-31T16:59:26.897Z,100150.46
2018-05-31T17:01:53.193Z,100149.09
2018-05-31T17:04:19.469Z,100159.81
2018-05-31T17:06:45.789Z,100161.14
2018-05-31T17:09:12.025Z,100148.15
2018-05-31T17:11:38.314Z,100154.30
2018-05-31T17:14:04.618Z,100147.34
2018-05-31T17:16:31.606Z,100156.91
2018-05-31T17:18:57.906Z,100159.94
2018-05-31T17:21:24.898Z,100160.97
2018-05-31T17:23:51.211Z,100164.90
2018-05-31T17:26:17.601Z,100163.30
2018-05-31T17:28:43.926Z,100168.14
2018-05-31T17:31:10.201Z,100164.06
2018-05-31T17:33:36.514Z,100163.20
2018-05-31T17:36:02.843Z,100162.13
2018-05-31T17:38:29.151Z,100160.32
2018-05-31T17:40:55.433Z,100159.66
2018-05-31T17:43:23.238Z,100149.39
2018-05-31T17:45:49.560Z,100147.34
2018-05-31T17:48:16.562Z,100138.95
2018-05-31T17:50:42.847Z,100132.19
2018-05-31T17:53:09.152Z,100132.59
2018-05-31T17:55:35.486Z,100130.50
2018-05-31T17:58:01.815Z,100133.86
2018-05-31T18:00:28.066Z,100138.25
2018-05-31T18:02:54.393Z,100133.88
2018-05-31T18:05:20.669Z,100133.19
2018-05-31T18:07:47.761Z,100136.59
2018-05-31T18:10:14.102Z,100140.62
2018-05-31T18:12:40.385Z,100142.16
2018-05-31T18:15:07.453Z,100145.36
2018-05-31T18:17:33.755Z,100148.98
2018-05-31T18:20:00.101Z,100153.99
2018-05-31T18:22:26.429Z,100157.34
2018-05-31T18:24:52.729Z,100163.39
2018-05-31T18:27:19.032Z,100166.42
2018-05-31T18:29:46.084Z,100166.22
2018-05-31T18:32:13.098Z,100157.73
2018-05-31T18:34:39.408Z,100161.67
2018-05-31T18:37:05.701Z,100162.77
2018-05-31T18:39:31.986Z,100163.89
2018-05-31T18:41:58.291Z,100168.48
2018-05-31T18:44:24.584Z,100169.41
2018-05-31T18:46:50.883Z,100174.89
2018-05-31T18:49:17.209Z,100183.48
2018-05-31T18:51:43.503Z,100187.46
2018-05-31T18:54:09.791Z,100189.53
2018-05-31T18:56:36.085Z,100203.53
2018-05-31T18:59:03.082Z,100204.77
2018-05-31T19:01:29.397Z,100208.23
2018-05-31T19:03:55.654Z,100204.06
2018-05-31T19:06:21.973Z,100207.62
2018-05-31T19:08:48.250Z,100211.97
2018-05-31T19:11:14.582Z,100227.30
2018-05-31T19:13:47.019Z,100227.17
2018-05-31T19:16:13.306Z,100234.73
2018-05-31T19:18:45.793Z,100235.16
2018-05-31T19:21:12.108Z,100238.02
2018-05-31T19:23:38.406Z,100246.36
2018-05-31T19:26:04.684Z,100252.50
2018-05-31T19:28:31.018Z,100258.77
2018-05-31T19:31:03.306Z,100262.83
2018-05-31T19:33:29.677Z,100268.68
2018-05-31T19:36:03.491Z,100262.75
2018-05-31T19:38:29.975Z,100267.59
2018-05-31T19:40:56.287Z,100261.77
2018-05-31T19:43:28.764Z,100261.28
2018-05-31T19:45:55.037Z,100252.08
2018-05-31T19:48:21.382Z,100250.78
2018-05-31T19:50:47.701Z,100242.56
2018-05-31T19:53:20.204Z,100234.79
2018-05-31T19:55:47.247Z,100234.13
2018-05-31T19:58:19.577Z,100233.26
2018-05-31T20:00:52.002Z,100240.86
2018-05-31T20:03:24.388Z,100233.06
2018-05-31T20:05:51.426Z,100230.55
2018-05-31T20:08:18.462Z,100222.41
2018-05-31T20:10:44.729Z,100218.94
2018-05-31T20:13:11.722Z,100217.72
2018-05-31T20:15:38.038Z,100223.95
2018-05-31T20:18:04.898Z,100227.63
2018-05-31T20:20:31.938Z,100230.64
2018-05-31T20:23:01.390Z,100225.01
2018-05-31T20:25:27.707Z,100223.86
2018-05-31T20:27:54.025Z,100211.77
2018-05-31T20:30:20.409Z,100211.87
2018-05-31T20:32:46.743Z,100212.83
2018-05-31T20:35:13.063Z,100214.08
2018-05-31T20:37:39.356Z,100209.63
2018-05-31T20:40:06.395Z,100211.41
2018-05-31T20:42:33.394Z,100206.89
2018-05-31T20:44:59.701Z,100200.84
2018-05-31T20:47:26.714Z,100197.22
2018-05-31T20:49:52.991Z,100196.46
2018-05-31T20:52:20.042Z,100196.81
2018-05-31T20:54:47.081Z,100188.02
2018-05-31T20:57:14.133Z,100192.18
2018-05-31T20:59:41.224Z,100195.72
2018-05-31T21:02:08.234Z,100199.38
2018-05-31T21:04:34.534Z,100197.63
2018-05-31T21:07:00.809Z,100201.21
2018-05-31T21:09:31.782Z,100208.02
2018-05-31T21:11:58.091Z,100215.72
2018-05-31T21:14:29.718Z,100222.02
2018-05-31T21:16:57.393Z,100214.16
2018-05-31T21:19:23.651Z,100211.92
2018-05-31T21:21:50.669Z,100205.55
2018-05-31T21:24:17.005Z,100203.89
2018-05-31T21:26:43.318Z,100201.00
2018-05-31T21:29:09.617Z,100207.80
2018-05-31T21:31:35.965Z,100208.54
2018-05-31T21:34:03.007Z,100209.85
2018-05-31T21:36:30.062Z,100209.91
2018-05-31T21:38:56.341Z,100202.37
2018-05-31T21:41:22.585Z,100201.11
2018-05-31T21:43:48.881Z,100196.36
2018-05-31T21:46:15.189Z,100194.50
2018-05-31T21:48:41.491Z,100190.64
2018-05-31T21:51:07.805Z,100184.45
2018-05-31T21:53:34.067Z,100186.99
2018-05-31T21:56:00.366Z,100183.88
2018-05-31T21:58:26.669Z,100181.64
2018-05-31T22:00:54.963Z,100179.20
2018-05-31T22:03:22.050Z,100177.19
2018-05-31T22:05:48.334Z,100178.36
2018-05-31T22:08:14.669Z,100182.59
2018-05-31T22:10:40.956Z,100166.67
2018-05-31T22:13:07.278Z,100162.46
2018-05-31T22:15:33.552Z,100168.14
2018-05-31T22:17:59.857Z,100168.47
2018-05-31T22:20:26.133Z,100179.61
2018-05-31T22:22:52.436Z,100171.88
2018-05-31T22:25:18.769Z,100168.60
2018-05-31T22:27:45.115Z,100159.59
2018-05-31T22:30:11.386Z,100162.42
2018-05-31T22:32:37.713Z,100163.81
2018-05-31T22:35:04.047Z,100160.39
2018-05-31T22:37:30.346Z,100155.52
2018-05-31T22:39:56.651Z,100143.98
2018-05-31T22:42:22.978Z,100137.59
2018-05-31T22:44:49.274Z,100135.31
2018-05-31T22:47:15.601Z,100126.19
2018-05-31T22:49:41.908Z,100127.04
2018-05-31T22:52:08.130Z,100122.95
2018-05-31T22:54:34.442Z,100127.34
2018-05-31T22:57:00.718Z,100136.78
2018-05-31T22:59:27.767Z,100147.14
2018-05-31T23:01:54.829Z,100152.16
2018-05-31T23:04:21.105Z,100148.40
2018-05-31T23:06:47.381Z,100149.10
2018-05-31T23:09:13.705Z,100149.59
2018-05-31T23:11:39.978Z,100154.05
2018-05-31T23:14:06.985Z,100159.77
2018-05-31T23:16:33.322Z,100164.72
2018-05-31T23:18:59.578Z,100168.70
2018-05-31T23:21:25.863Z,100168.90
2018-05-31T23:23:52.102Z,100170.17
2018-05-31T23:26:18.385Z,100167.63
2018-05-31T23:28:45.442Z,100167.63
2018-05-31T23:31:12.410Z,100169.97
2018-05-31T23:33:39.456Z,100174.95
2018-05-31T23:36:06.534Z,100179.12
2018-05-31T23:38:32.818Z,100176.63
2018-05-31T23:40:59.124Z,100179.58
2018-05-31T23:43:25.373Z,100179.20
2018-05-31T23:45:54.118Z,100187.52
2018-05-31T23:48:20.409Z,100194.72
2018-05-31T23:50:46.713Z,100195.01
2018-05-31T23:53:13.062Z,100202.38
2018-05-31T23:55:39.322Z,100206.25
2018-05-31T23:58:05.620Z,100202.08
